Weather at Gander International Airport

Public forecast

Using degrees Celsius for public forecast. Weather courtesy of forecast.io.

Current aviation weather report (METAR) for Gander International Airport

Retrieved 2020/10/27 23:40 UTC (41 seconds ago):

CYQX 272340Z 02003KT 5/8SM R13/4500FT/N R03/P6000FT/N -SN BR OVC002 00/00 A2970 RMK FG7SF1 SLP066

Aviation forecast (TAF) for Gander International Airport

Retrieved 2020/10/27 18:42 UTC (5 hours ago):

TAF CYQX 271738Z 2718/2818 04008KT 11/2SM -SN BR OVC002 FM280700 01008KT 2SM -SN BR OVC003 TEMPO 2807/2810 6SM BR SCT003 OVC010 FM281000 30008KT P6SM -SHSN SCT007 OVC015 FM281700 31012KT P6SM BKN025 RMK NXT FCST BY 280000Z